Airport View

Enter AWOS ICAO identifier for current METAR.

ex. KFNL

KLAS 212256Z 10004KT 10SM CLR 29/M03 A2992 RMK AO2 SLP110 T02941033

21 Sep 2019 23:42

Phone: 702-736-1416

Other Area AWOS: KHND - KVGT - KLSV - KBVU

TAF AMD KLAS 212034Z 2121/2224 03006KT P6SM SKC FM212200 09006KT P6SM SKC FM220500 26006KT P6SM SKC FM221500 VRB05KT P6SM SKC FM221900 09006KT P6SM SKC